createdAt,value
2019-03-05T00:02:51.402Z,85.30
2019-03-05T00:07:55.346Z,84.80
2019-03-05T00:28:25.855Z,85.20
2019-03-05T00:33:50.146Z,85.20
2019-03-05T00:54:57.154Z,85.20
2019-03-05T01:00:19.805Z,85.80
2019-03-05T01:06:12.401Z,85.60
2019-03-05T01:16:23.338Z,85.80
2019-03-05T01:21:29.321Z,86.60
2019-03-05T01:26:33.368Z,86.60
2019-03-05T01:31:48.429Z,86.90
2019-03-05T01:36:55.563Z,87.30
2019-03-05T01:41:59.455Z,88.00
2019-03-05T01:47:03.466Z,88.20
2019-03-05T01:52:07.163Z,88.10
2019-03-05T01:57:11.078Z,88.80
2019-03-05T02:02:14.863Z,88.20
2019-03-05T02:07:18.571Z,88.90
2019-03-05T02:12:22.284Z,87.70
2019-03-05T02:44:28.230Z,86.00
2019-03-05T02:50:08.244Z,85.20
2019-03-05T03:05:55.534Z,84.70
2019-03-05T03:10:59.493Z,85.40
2019-03-05T03:16:03.368Z,85.70
2019-03-05T03:21:07.247Z,85.50
2019-03-05T03:26:11.020Z,85.00
2019-03-05T03:31:14.729Z,85.60
2019-03-05T03:36:18.627Z,85.70
2019-03-05T03:46:25.656Z,86.40
2019-03-05T03:51:29.706Z,85.90
2019-03-05T03:56:33.545Z,86.80
2019-03-05T04:06:40.555Z,87.50
2019-03-05T04:11:44.338Z,88.00
2019-03-05T04:16:48.058Z,88.20
2019-03-05T04:21:51.948Z,89.20
2019-03-05T04:26:55.717Z,91.20
2019-03-05T04:31:59.554Z,92.00
2019-03-05T04:37:03.249Z,92.80
2019-03-05T04:42:07.094Z,93.10
2019-03-05T04:47:12.103Z,93.10
2019-03-05T04:52:18.525Z,93.20
2019-03-05T04:57:22.256Z,93.20
2019-03-05T05:02:25.965Z,92.20
2019-03-05T05:12:33.456Z,91.70
2019-03-05T05:17:37.198Z,91.80
2019-03-05T05:27:44.708Z,91.80
2019-03-05T05:37:51.958Z,95.20
2019-03-05T05:42:55.705Z,96.50
2019-03-05T05:53:02.951Z,97.20
2019-03-05T05:58:06.671Z,98.10
2019-03-05T06:03:10.743Z,98.80
2019-03-05T06:08:14.710Z,99.20
2019-03-05T06:13:18.478Z,99.10
2019-03-05T06:18:22.329Z,99.70
2019-03-05T06:23:26.042Z,99.70
2019-03-05T06:28:29.751Z,99.80
2019-03-05T06:33:33.582Z,99.40
2019-03-05T06:38:37.336Z,99.10
2019-03-05T06:43:41.094Z,98.30
2019-03-05T06:48:44.861Z,98.00
2019-03-05T06:53:48.678Z,97.80
2019-03-05T06:58:52.389Z,97.70
2019-03-05T07:03:56.101Z,97.10
2019-03-05T07:09:08.313Z,97.40
2019-03-05T07:14:17.919Z,97.30
2019-03-05T07:19:44.479Z,97.20
2019-03-05T07:24:51.933Z,96.20
2019-03-05T07:29:57.900Z,96.40
2019-03-05T07:35:01.857Z,96.00
2019-03-05T07:40:06.739Z,96.20
2019-03-05T07:45:11.048Z,96.40
2019-03-05T07:50:14.838Z,96.70
2019-03-05T07:55:18.730Z,98.10
2019-03-05T08:05:25.908Z,97.80
2019-03-05T08:10:33.280Z,98.00
2019-03-05T08:16:18.655Z,98.10
2019-03-05T08:21:22.485Z,97.70
2019-03-05T08:26:26.210Z,97.30
2019-03-05T08:31:30.189Z,97.90
2019-03-05T08:36:34.274Z,98.00
2019-03-05T08:41:38.135Z,97.70
2019-03-05T08:46:42.017Z,96.60
2019-03-05T08:51:45.737Z,97.00
2019-03-05T08:56:49.537Z,96.50
2019-03-05T09:01:53.503Z,96.90
2019-03-05T09:06:57.209Z,96.20
2019-03-05T09:12:01.096Z,96.70
2019-03-05T09:17:05.867Z,96.90
2019-03-05T09:22:09.879Z,95.90
2019-03-05T09:27:13.626Z,95.40
2019-03-05T09:32:17.510Z,94.10
2019-03-05T09:37:23.385Z,94.40
2019-03-05T09:42:27.185Z,94.20
2019-03-05T09:47:30.902Z,93.20
2019-03-05T09:52:34.645Z,92.70
2019-03-05T09:57:40.313Z,93.50
2019-03-05T10:02:44.188Z,93.00
2019-03-05T10:07:48.072Z,94.50
2019-03-05T10:12:52.036Z,93.60
2019-03-05T10:17:55.981Z,92.50
2019-03-05T10:22:59.874Z,93.10
2019-03-05T10:28:03.645Z,93.20
2019-03-05T10:33:09.784Z,91.80
2019-03-05T10:38:14.594Z,92.10
2019-03-05T10:43:19.546Z,88.20
2019-03-05T10:48:23.939Z,89.80
2019-03-05T10:53:28.361Z,89.80
2019-03-05T10:58:34.134Z,90.30
2019-03-05T11:03:37.921Z,86.80
2019-03-05T11:08:41.737Z,86.80
2019-03-05T11:13:45.590Z,89.40
2019-03-05T11:18:49.425Z,89.70
2019-03-05T11:23:53.133Z,88.40
2019-03-05T11:28:56.846Z,89.00
2019-03-05T11:34:00.682Z,86.80
2019-03-05T11:39:05.654Z,85.90
2019-03-05T11:44:09.439Z,86.60
2019-03-05T11:49:13.150Z,87.00
2019-03-05T11:54:17.093Z,83.80
2019-03-05T11:59:20.827Z,87.40
2019-03-05T12:04:24.929Z,84.20
2019-03-05T12:09:28.961Z,86.70
2019-03-05T12:14:32.839Z,88.70
2019-03-05T12:24:39.910Z,83.10
2019-03-05T12:29:43.603Z,82.00
2019-03-05T12:34:47.317Z,83.10
2019-03-05T12:39:51.009Z,82.80
2019-03-05T12:44:54.716Z,78.50
2019-03-05T13:15:25.799Z,74.40
2019-03-05T13:25:32.894Z,65.20
2019-03-05T13:30:36.732Z,65.60
2019-03-05T13:56:37.661Z,69.80
2019-03-05T14:27:28.581Z,65.10
2019-03-05T14:32:32.705Z,65.90
2019-03-05T14:37:36.553Z,67.50
2019-03-05T14:42:40.523Z,67.00
2019-03-05T14:57:51.559Z,69.40
2019-03-05T15:02:55.577Z,69.40
2019-03-05T15:07:59.375Z,71.80
2019-03-05T15:13:14.941Z,73.90
2019-03-05T15:18:08.961Z,95.20
2019-03-05T15:33:20.033Z,98.50
2019-03-05T16:03:44.293Z,98.40
2019-03-05T16:24:02.684Z,97.90
2019-03-05T16:29:06.744Z,98.00
2019-03-05T16:45:07.492Z,98.60
2019-03-05T16:55:52.013Z,98.70
2019-03-05T17:01:17.162Z,98.00
2019-03-05T18:07:41.746Z,97.20
2019-03-05T18:12:45.653Z,97.30
2019-03-05T18:27:56.709Z,97.70
2019-03-05T18:33:01.077Z,97.80
2019-03-05T18:43:08.684Z,97.80
2019-03-05T18:58:20.266Z,97.20
2019-03-05T19:08:27.569Z,97.20
2019-03-05T19:18:35.909Z,97.10
2019-03-05T19:23:39.667Z,97.60
2019-03-05T19:28:43.583Z,97.40
2019-03-05T19:33:47.343Z,97.40
2019-03-05T19:38:51.150Z,97.30
2019-03-05T19:43:54.928Z,97.40
2019-03-05T19:48:58.659Z,97.50
2019-03-05T19:54:02.422Z,97.30
2019-03-05T19:59:06.188Z,97.70
2019-03-05T20:04:11.920Z,97.80
2019-03-05T20:09:19.510Z,98.00
2019-03-05T20:14:23.396Z,98.10
2019-03-05T20:19:27.255Z,98.20
2019-03-05T20:24:31.069Z,98.30
2019-03-05T20:29:35.047Z,98.40
2019-03-05T20:34:38.977Z,98.50
2019-03-05T20:39:42.798Z,98.40
2019-03-05T20:44:46.599Z,98.70
2019-03-05T20:49:50.457Z,98.70
2019-03-05T20:54:54.534Z,98.80
2019-03-05T20:59:58.358Z,98.70
2019-03-05T21:05:02.217Z,99.00
2019-03-05T21:10:06.944Z,99.00
2019-03-05T21:15:11.273Z,99.20
2019-03-05T21:20:15.481Z,99.20
2019-03-05T21:25:19.345Z,99.20
2019-03-05T21:30:23.449Z,99.30
2019-03-05T21:35:28.346Z,99.40
2019-03-05T21:40:32.318Z,99.50
2019-03-05T21:45:37.059Z,99.60
2019-03-05T21:50:40.776Z,99.70
2019-03-05T21:55:44.466Z,99.70
2019-03-05T22:00:48.513Z,99.80
2019-03-05T22:05:52.269Z,99.80
2019-03-05T22:10:56.294Z,99.80
2019-03-05T22:16:00.164Z,99.90
2019-03-05T22:21:04.408Z,99.90
2019-03-05T22:26:08.109Z,99.90
2019-03-05T22:31:12.231Z,99.90
2019-03-05T22:36:15.925Z,99.90
2019-03-05T22:41:20.790Z,99.90
2019-03-05T22:46:24.487Z,99.90
2019-03-05T22:51:28.242Z,99.90
2019-03-05T22:56:32.034Z,99.90
2019-03-05T23:01:41.592Z,99.90
2019-03-05T23:06:45.424Z,99.90
2019-03-05T23:11:49.572Z,99.90
2019-03-05T23:16:53.682Z,99.90
2019-03-05T23:21:57.831Z,99.90
2019-03-05T23:27:02.063Z,99.90
2019-03-05T23:32:06.185Z,99.90
2019-03-05T23:37:10.050Z,99.90
2019-03-05T23:42:14.126Z,99.90
2019-03-05T23:47:17.908Z,99.90
2019-03-05T23:52:21.736Z,99.90
2019-03-05T23:57:25.502Z,99.90
